sensor_id;sensor_type;location;lat;lon;timestamp;pressure;altitude;pressure_sealevel;temperature;humidity
44349;BME280;30068;50.986;4.564;2023-02-13T00:01:57;103725.81;;;15.95;63.57
44349;BME280;30068;50.986;4.564;2023-02-13T00:04:22;103724.53;;;15.86;63.60
44349;BME280;30068;50.986;4.564;2023-02-13T00:06:48;103722.25;;;15.94;63.71
44349;BME280;30068;50.986;4.564;2023-02-13T00:09:13;103721.84;;;15.86;63.86
44349;BME280;30068;50.986;4.564;2023-02-13T00:11:39;103724.69;;;15.83;63.90
44349;BME280;30068;50.986;4.564;2023-02-13T00:14:04;103726.44;;;15.84;63.77
44349;BME280;30068;50.986;4.564;2023-02-13T00:16:29;103723.13;;;15.95;62.79
44349;BME280;30068;50.986;4.564;2023-02-13T00:18:55;103715.56;;;16.01;62.50
44349;BME280;30068;50.986;4.564;2023-02-13T00:21:20;103719.28;;;15.99;63.09
44349;BME280;30068;50.986;4.564;2023-02-13T00:23:46;103721.31;;;15.95;62.96
44349;BME280;30068;50.986;4.564;2023-02-13T00:26:14;103718.50;;;15.97;63.09
44349;BME280;30068;50.986;4.564;2023-02-13T00:28:41;103711.50;;;15.94;63.85
44349;BME280;30068;50.986;4.564;2023-02-13T00:31:12;103711.66;;;15.91;63.48
44349;BME280;30068;50.986;4.564;2023-02-13T00:33:38;103720.69;;;15.90;63.88
44349;BME280;30068;50.986;4.564;2023-02-13T00:38:29;103712.63;;;15.90;62.96
44349;BME280;30068;50.986;4.564;2023-02-13T00:40:55;103702.25;;;15.98;62.93
44349;BME280;30068;50.986;4.564;2023-02-13T00:43:20;103714.59;;;16.02;62.63
44349;BME280;30068;50.986;4.564;2023-02-13T00:45:46;103712.00;;;16.01;62.91
44349;BME280;30068;50.986;4.564;2023-02-13T00:48:11;103713.22;;;15.95;62.88
44349;BME280;30068;50.986;4.564;2023-02-13T00:50:37;103710.34;;;15.98;62.82
44349;BME280;30068;50.986;4.564;2023-02-13T00:53:02;103709.59;;;15.96;63.26
44349;BME280;30068;50.986;4.564;2023-02-13T00:55:27;103711.50;;;15.94;63.16
44349;BME280;30068;50.986;4.564;2023-02-13T00:57:53;103709.41;;;15.84;63.23
44349;BME280;30068;50.986;4.564;2023-02-13T01:00:18;103711.28;;;15.97;62.88
44349;BME280;30068;50.986;4.564;2023-02-13T01:02:43;103707.13;;;16.07;62.45
44349;BME280;30068;50.986;4.564;2023-02-13T01:05:09;103712.50;;;16.07;62.08
44349;BME280;30068;50.986;4.564;2023-02-13T01:07:34;103711.91;;;16.02;62.76
44349;BME280;30068;50.986;4.564;2023-02-13T01:09:59;103706.69;;;15.99;62.87
44349;BME280;30068;50.986;4.564;2023-02-13T01:12:25;103706.91;;;15.96;62.86
44349;BME280;30068;50.986;4.564;2023-02-13T01:14:50;103707.66;;;15.98;63.12
44349;BME280;30068;50.986;4.564;2023-02-13T01:17:16;103704.53;;;15.90;63.41
44349;BME280;30068;50.986;4.564;2023-02-13T01:19:41;103704.72;;;15.87;63.33
44349;BME280;30068;50.986;4.564;2023-02-13T01:22:07;103712.00;;;16.01;62.59
44349;BME280;30068;50.986;4.564;2023-02-13T01:24:33;103714.03;;;16.11;62.08
44349;BME280;30068;50.986;4.564;2023-02-13T01:26:58;103704.50;;;16.06;62.16
44349;BME280;30068;50.986;4.564;2023-02-13T01:29:26;103700.94;;;16.05;62.52
44349;BME280;30068;50.986;4.564;2023-02-13T01:31:51;103704.88;;;16.00;62.60
44349;BME280;30068;50.986;4.564;2023-02-13T01:34:17;103707.66;;;15.98;62.53
44349;BME280;30068;50.986;4.564;2023-02-13T01:36:42;103705.03;;;15.97;62.66
44349;BME280;30068;50.986;4.564;2023-02-13T01:39:10;103709.09;;;15.90;62.89
44349;BME280;30068;50.986;4.564;2023-02-13T01:41:36;103711.78;;;15.90;62.94
44349;BME280;30068;50.986;4.564;2023-02-13T01:44:02;103709.88;;;16.06;62.23
44349;BME280;30068;50.986;4.564;2023-02-13T01:49:19;103721.38;;;16.09;62.13
44349;BME280;30068;50.986;4.564;2023-02-13T01:51:46;103710.25;;;16.00;62.46
44349;BME280;30068;50.986;4.564;2023-02-13T01:54:15;103715.97;;;16.09;62.22
44349;BME280;30068;50.986;4.564;2023-02-13T01:56:44;103711.72;;;16.05;62.53
44349;BME280;30068;50.986;4.564;2023-02-13T01:59:20;103710.75;;;16.06;62.56
44349;BME280;30068;50.986;4.564;2023-02-13T02:01:49;103710.81;;;16.20;61.72
44349;BME280;30068;50.986;4.564;2023-02-13T02:04:35;103709.59;;;15.96;51.75
44349;BME280;30068;50.986;4.564;2023-02-13T02:07:09;103717.25;;;13.19;50.50
44349;BME280;30068;50.986;4.564;2023-02-13T02:09:40;103708.59;;;14.54;52.23
44349;BME280;30068;50.986;4.564;2023-02-13T02:12:30;103698.78;;;15.19;52.33
44349;BME280;30068;50.986;4.564;2023-02-13T02:14:59;103706.97;;;12.30;47.35
44349;BME280;30068;50.986;4.564;2023-02-13T02:17:26;103702.31;;;13.32;51.71
44349;BME280;30068;50.986;4.564;2023-02-13T02:23:13;103693.56;;;15.32;52.41
44349;BME280;30068;50.986;4.564;2023-02-13T02:33:50;103683.91;;;15.43;55.25
44349;BME280;30068;50.986;4.564;2023-02-13T02:39:29;103685.84;;;15.41;55.73
44349;BME280;30068;50.986;4.564;2023-02-13T02:41:59;103690.88;;;15.48;56.49
44349;BME280;30068;50.986;4.564;2023-02-13T02:44:52;103689.50;;;15.40;56.92
44349;BME280;30068;50.986;4.564;2023-02-13T02:52:47;103683.56;;;15.65;56.59
44349;BME280;30068;50.986;4.564;2023-02-13T02:55:26;103685.84;;;15.57;57.12
44349;BME280;30068;50.986;4.564;2023-02-13T02:58:02;103688.81;;;15.53;57.50
44349;BME280;30068;50.986;4.564;2023-02-13T03:00:49;103687.03;;;15.52;57.83
44349;BME280;30068;50.986;4.564;2023-02-13T03:03:34;103685.28;;;15.51;58.04
44349;BME280;30068;50.986;4.564;2023-02-13T03:06:22;103686.13;;;15.53;58.03
44349;BME280;30068;50.986;4.564;2023-02-13T03:08:56;103683.44;;;15.53;58.39
44349;BME280;30068;50.986;4.564;2023-02-13T03:11:41;103685.22;;;15.52;58.33
44349;BME280;30068;50.986;4.564;2023-02-13T03:14:26;103686.97;;;15.69;58.43
44349;BME280;30068;50.986;4.564;2023-02-13T03:16:52;103677.44;;;15.93;57.11
44349;BME280;30068;50.986;4.564;2023-02-13T03:19:43;103688.69;;;15.70;57.69
44349;BME280;30068;50.986;4.564;2023-02-13T03:30:22;103683.00;;;15.60;58.76
44349;BME280;30068;50.986;4.564;2023-02-13T03:33:10;103684.63;;;15.63;58.73
44349;BME280;30068;50.986;4.564;2023-02-13T03:35:49;103684.81;;;15.60;59.07
44349;BME280;30068;50.986;4.564;2023-02-13T03:41:04;103674.19;;;15.72;58.70
44349;BME280;30068;50.986;4.564;2023-02-13T03:43:49;103675.75;;;16.06;57.66
44349;BME280;30068;50.986;4.564;2023-02-13T03:46:18;103675.41;;;15.83;58.03
44349;BME280;30068;50.986;4.564;2023-02-13T03:48:44;103670.91;;;15.67;58.19
44349;BME280;30068;50.986;4.564;2023-02-13T03:51:37;103672.44;;;15.71;58.82
44349;BME280;30068;50.986;4.564;2023-02-13T03:54:10;103675.22;;;15.70;58.92
44349;BME280;30068;50.986;4.564;2023-02-13T03:56:40;103680.72;;;15.68;59.20
44349;BME280;30068;50.986;4.564;2023-02-13T03:59:28;103678.03;;;15.68;58.98
44349;BME280;30068;50.986;4.564;2023-02-13T04:02:13;103680.72;;;15.68;58.83
44349;BME280;30068;50.986;4.564;2023-02-13T04:07:07;103682.34;;;15.71;59.21
44349;BME280;30068;50.986;4.564;2023-02-13T04:09:35;103672.81;;;15.65;59.41
44349;BME280;30068;50.986;4.564;2023-02-13T04:17:02;103681.16;;;15.61;59.51
44349;BME280;30068;50.986;4.564;2023-02-13T04:19:29;103691.34;;;15.56;59.71
44349;BME280;30068;50.986;4.564;2023-02-13T04:21:56;103696.16;;;15.65;59.40
44349;BME280;30068;50.986;4.564;2023-02-13T04:24:23;103691.72;;;15.64;59.71
44349;BME280;30068;50.986;4.564;2023-02-13T04:26:48;103682.41;;;15.55;59.73
44349;BME280;30068;50.986;4.564;2023-02-13T04:29:14;103686.72;;;15.58;59.61
44349;BME280;30068;50.986;4.564;2023-02-13T04:31:39;103685.84;;;15.57;60.15
44349;BME280;30068;50.986;4.564;2023-02-13T04:34:04;103692.63;;;15.49;59.97
44349;BME280;30068;50.986;4.564;2023-02-13T04:36:30;103689.59;;;15.55;59.82
44349;BME280;30068;50.986;4.564;2023-02-13T04:38:55;103692.97;;;15.58;59.69
44349;BME280;30068;50.986;4.564;2023-02-13T04:41:20;103693.84;;;15.59;59.88
44349;BME280;30068;50.986;4.564;2023-02-13T04:43:46;103685.28;;;15.51;59.77
44349;BME280;30068;50.986;4.564;2023-02-13T04:46:11;103691.22;;;15.41;60.44
44349;BME280;30068;50.986;4.564;2023-02-13T04:48:36;103687.81;;;15.38;60.29
44349;BME280;30068;50.986;4.564;2023-02-13T04:51:01;103688.53;;;15.41;60.32
44349;BME280;30068;50.986;4.564;2023-02-13T04:53:27;103684.34;;;15.52;60.15
44349;BME280;30068;50.986;4.564;2023-02-13T04:55:52;103678.28;;;15.32;60.54
44349;BME280;30068;50.986;4.564;2023-02-13T04:58:17;103682.72;;;15.33;60.65
44349;BME280;30068;50.986;4.564;2023-02-13T05:00:43;103682.44;;;15.38;60.36
44349;BME280;30068;50.986;4.564;2023-02-13T05:03:09;103686.16;;;15.35;60.77
44349;BME280;30068;50.986;4.564;2023-02-13T05:05:34;103684.88;;;15.42;59.81
44349;BME280;30068;50.986;4.564;2023-02-13T05:08:00;103686.59;;;15.43;60.07
44349;BME280;30068;50.986;4.564;2023-02-13T05:10:25;103676.81;;;15.27;60.68
44349;BME280;30068;50.986;4.564;2023-02-13T05:12:50;103682.88;;;15.30;60.45
44349;BME280;30068;50.986;4.564;2023-02-13T05:15:16;103683.31;;;15.38;60.56
44349;BME280;30068;50.986;4.564;2023-02-13T05:17:44;103692.19;;;15.25;60.64
44349;BME280;30068;50.986;4.564;2023-02-13T05:20:10;103686.28;;;15.18;60.82
44349;BME280;30068;50.986;4.564;2023-02-13T05:22:35;103685.84;;;15.26;60.54
44349;BME280;30068;50.986;4.564;2023-02-13T05:25:19;103684.81;;;15.13;61.13
44349;BME280;30068;50.986;4.564;2023-02-13T05:27:44;103691.38;;;15.23;60.36
44349;BME280;30068;50.986;4.564;2023-02-13T05:30:10;103695.03;;;15.06;61.04
44349;BME280;30068;50.986;4.564;2023-02-13T05:32:35;103700.50;;;15.20;60.81
44349;BME280;30068;50.986;4.564;2023-02-13T05:35:01;103695.22;;;15.19;60.36
44349;BME280;30068;50.986;4.564;2023-02-13T05:37:26;103695.97;;;15.05;60.97
44349;BME280;30068;50.986;4.564;2023-02-13T05:39:52;103690.25;;;15.11;61.02
44349;BME280;30068;50.986;4.564;2023-02-13T05:42:17;103690.59;;;15.05;61.23
44349;BME280;30068;50.986;4.564;2023-02-13T05:44:42;103694.50;;;14.99;61.39
44349;BME280;30068;50.986;4.564;2023-02-13T05:47:07;103702.91;;;15.09;60.88
44349;BME280;30068;50.986;4.564;2023-02-13T05:49:32;103700.75;;;15.00;61.15
44349;BME280;30068;50.986;4.564;2023-02-13T05:51:58;103693.72;;;14.97;61.35
44349;BME280;30068;50.986;4.564;2023-02-13T05:54:23;103697.28;;;14.98;61.31
44349;BME280;30068;50.986;4.564;2023-02-13T05:56:48;103701.25;;;14.91;61.78
44349;BME280;30068;50.986;4.564;2023-02-13T05:59:13;103694.31;;;15.02;61.36
44349;BME280;30068;50.986;4.564;2023-02-13T06:01:38;103698.56;;;14.91;61.56
44349;BME280;30068;50.986;4.564;2023-02-13T06:04:04;103700.72;;;14.84;61.70
44349;BME280;30068;50.986;4.564;2023-02-13T06:06:29;103700.72;;;14.84;61.60
44349;BME280;30068;50.986;4.564;2023-02-13T06:08:54;103703.47;;;14.83;61.68
44349;BME280;30068;50.986;4.564;2023-02-13T06:11:20;103703.34;;;14.86;61.51
44349;BME280;30068;50.986;4.564;2023-02-13T06:13:45;103696.81;;;14.90;61.63
44349;BME280;30068;50.986;4.564;2023-02-13T06:16:10;103696.38;;;14.82;61.45
44349;BME280;30068;50.986;4.564;2023-02-13T06:18:36;103700.59;;;14.70;62.08
44349;BME280;30068;50.986;4.564;2023-02-13T06:21:01;103701.13;;;14.77;62.01
44349;BME280;30068;50.986;4.564;2023-02-13T06:23:27;103700.00;;;14.81;61.72
44349;BME280;30068;50.986;4.564;2023-02-13T06:25:52;103703.56;;;14.81;61.73
44349;BME280;30068;50.986;4.564;2023-02-13T06:28:17;103698.63;;;14.74;61.76
44349;BME280;30068;50.986;4.564;2023-02-13T06:30:43;103700.34;;;14.75;61.96
44349;BME280;30068;50.986;4.564;2023-02-13T06:33:08;103692.28;;;14.75;61.99
44349;BME280;30068;50.986;4.564;2023-02-13T06:35:33;103681.25;;;14.63;61.97
44349;BME280;30068;50.986;4.564;2023-02-13T06:37:58;103693.00;;;14.61;62.31
44349;BME280;30068;50.986;4.564;2023-02-13T06:40:24;103693.88;;;14.61;62.13
44349;BME280;30068;50.986;4.564;2023-02-13T06:42:49;103690.25;;;14.62;62.11
44349;BME280;30068;50.986;4.564;2023-02-13T06:45:14;103693.75;;;14.65;62.06
44349;BME280;30068;50.986;4.564;2023-02-13T06:47:43;103690.25;;;14.62;62.19
44349;BME280;30068;50.986;4.564;2023-02-13T06:50:08;103688.84;;;14.55;62.38
44349;BME280;30068;50.986;4.564;2023-02-13T06:52:34;103696.91;;;14.55;62.00
44349;BME280;30068;50.986;4.564;2023-02-13T06:55:00;103699.13;;;14.65;62.14
44349;BME280;30068;50.986;4.564;2023-02-13T06:57:25;103693.53;;;14.52;62.38
44349;BME280;30068;50.986;4.564;2023-02-13T06:59:50;103703.41;;;14.51;62.44
44349;BME280;30068;50.986;4.564;2023-02-13T07:02:16;103699.59;;;14.55;62.21
44349;BME280;30068;50.986;4.564;2023-02-13T07:04:41;103702.13;;;14.58;61.92
44349;BME280;30068;50.986;4.564;2023-02-13T07:07:06;103699.94;;;14.49;62.60
44349;BME280;30068;50.986;4.564;2023-02-13T07:09:31;103704.34;;;14.50;62.49
44349;BME280;30068;50.986;4.564;2023-02-13T07:11:57;103704.09;;;14.55;62.22
44349;BME280;30068;50.986;4.564;2023-02-13T07:14:22;103701.66;;;14.50;62.28
44349;BME280;30068;50.986;4.564;2023-02-13T07:16:47;103707.03;;;14.50;62.49
44349;BME280;30068;50.986;4.564;2023-02-13T07:19:13;103704.34;;;14.50;62.35
44349;BME280;30068;50.986;4.564;2023-02-13T07:21:38;103711.41;;;14.53;62.57
44349;BME280;30068;50.986;4.564;2023-02-13T07:24:03;103713.44;;;14.48;62.30
44349;BME280;30068;50.986;4.564;2023-02-13T07:26:29;103716.84;;;14.51;62.15
44349;BME280;30068;50.986;4.564;2023-02-13T07:28:54;103710.84;;;14.46;62.42
44349;BME280;30068;50.986;4.564;2023-02-13T07:31:19;103710.84;;;14.46;62.92
44349;BME280;30068;50.986;4.564;2023-02-13T07:33:47;103710.13;;;14.43;62.90
44349;BME280;30068;50.986;4.564;2023-02-13T07:36:12;103712.97;;;14.40;62.97
44349;BME280;30068;50.986;4.564;2023-02-13T07:38:37;103709.34;;;14.41;62.46
44349;BME280;30068;50.986;4.564;2023-02-13T07:41:03;103706.44;;;14.45;62.44
44349;BME280;30068;50.986;4.564;2023-02-13T07:43:28;103707.50;;;14.41;62.78
44349;BME280;30068;50.986;4.564;2023-02-13T07:45:57;103715.50;;;14.43;62.50
44349;BME280;30068;50.986;4.564;2023-02-13T07:48:22;103704.69;;;14.44;62.79
44349;BME280;30068;50.986;4.564;2023-02-13T07:50:48;103712.19;;;14.38;62.75
44349;BME280;30068;50.986;4.564;2023-02-13T07:53:13;103711.28;;;14.37;62.84
44349;BME280;30068;50.986;4.564;2023-02-13T07:55:38;103716.75;;;14.36;62.84
44349;BME280;30068;50.986;4.564;2023-02-13T07:58:04;103723.13;;;14.33;62.94
44349;BME280;30068;50.986;4.564;2023-02-13T08:00:29;103716.13;;;14.31;63.03
44349;BME280;30068;50.986;4.564;2023-02-13T08:02:57;103722.28;;;14.33;62.77
44349;BME280;30068;50.986;4.564;2023-02-13T08:05:22;103726.88;;;14.31;63.21
44349;BME280;30068;50.986;4.564;2023-02-13T08:07:47;103725.03;;;14.31;62.94
44349;BME280;30068;50.986;4.564;2023-02-13T08:10:13;103732.47;;;14.26;63.29
44349;BME280;30068;50.986;4.564;2023-02-13T08:12:57;103731.69;;;14.41;62.59
44349;BME280;30068;50.986;4.564;2023-02-13T08:15:22;103728.75;;;14.29;62.76
44349;BME280;30068;50.986;4.564;2023-02-13T08:17:47;103729.69;;;14.28;62.97
44349;BME280;30068;50.986;4.564;2023-02-13T08:20:13;103724.88;;;14.34;63.12
44349;BME280;30068;50.986;4.564;2023-02-13T08:22:38;103728.50;;;14.33;63.19
44349;BME280;30068;50.986;4.564;2023-02-13T08:25:04;103724.09;;;14.32;63.09
44349;BME280;30068;50.986;4.564;2023-02-13T08:27:29;103720.00;;;14.25;63.30
44349;BME280;30068;50.986;4.564;2023-02-13T08:29:57;103726.00;;;14.30;63.07
44349;BME280;30068;50.986;4.564;2023-02-13T08:32:23;103733.09;;;14.31;63.36
44349;BME280;30068;50.986;4.564;2023-02-13T08:34:48;103726.69;;;14.34;63.26
44349;BME280;30068;50.986;4.564;2023-02-13T08:37:14;103724.69;;;14.39;62.90
44349;BME280;30068;50.986;4.564;2023-02-13T08:39:39;103725.38;;;14.25;63.41
44349;BME280;30068;50.986;4.564;2023-02-13T08:42:04;103723.31;;;14.30;63.21
44349;BME280;30068;50.986;4.564;2023-02-13T08:44:29;103724.25;;;14.29;63.48
44349;BME280;30068;50.986;4.564;2023-02-13T08:46:55;103723.38;;;14.29;63.48
44349;BME280;30068;50.986;4.564;2023-02-13T08:49:20;103715.19;;;14.32;63.47
44349;BME280;30068;50.986;4.564;2023-02-13T08:51:47;103731.19;;;14.33;63.44
44349;BME280;30068;50.986;4.564;2023-02-13T08:54:12;103726.31;;;14.24;63.55
44349;BME280;30068;50.986;4.564;2023-02-13T08:56:37;103729.47;;;14.32;63.44
44349;BME280;30068;50.986;4.564;2023-02-13T08:59:03;103730.75;;;14.25;63.77
44349;BME280;30068;50.986;4.564;2023-02-13T09:01:28;103727.41;;;14.20;63.72
44349;BME280;30068;50.986;4.564;2023-02-13T09:03:53;103729.94;;;14.23;63.90
44349;BME280;30068;50.986;4.564;2023-02-13T09:06:19;103725.25;;;14.27;63.74
44349;BME280;30068;50.986;4.564;2023-02-13T09:08:44;103734.13;;;14.29;63.61
44349;BME280;30068;50.986;4.564;2023-02-13T09:11:09;103725.38;;;14.25;64.09
44349;BME280;30068;50.986;4.564;2023-02-13T09:13:35;103729.13;;;14.21;64.03
44349;BME280;30068;50.986;4.564;2023-02-13T09:16:02;103726.63;;;14.18;64.40
44349;BME280;30068;50.986;4.564;2023-02-13T09:18:27;103728.38;;;14.19;64.48
44349;BME280;30068;50.986;4.564;2023-02-13T09:20:56;103727.88;;;14.28;64.21
44349;BME280;30068;50.986;4.564;2023-02-13T09:23:21;103732.16;;;14.32;64.21
44349;BME280;30068;50.986;4.564;2023-02-13T09:25:47;103737.06;;;14.24;64.09
44349;BME280;30068;50.986;4.564;2023-02-13T09:28:12;103732.06;;;14.34;64.28
44349;BME280;30068;50.986;4.564;2023-02-13T09:30:37;103729.53;;;14.31;64.47
44349;BME280;30068;50.986;4.564;2023-02-13T09:33:02;103730.81;;;14.23;64.59
44349;BME280;30068;50.986;4.564;2023-02-13T09:35:27;103734.84;;;14.32;64.38
44349;BME280;30068;50.986;4.564;2023-02-13T09:37:53;103730.41;;;14.31;64.32
44349;BME280;30068;50.986;4.564;2023-02-13T09:40:25;103734.66;;;14.35;64.18
44349;BME280;30068;50.986;4.564;2023-02-13T09:42:54;103733.03;;;14.33;64.43
44349;BME280;30068;50.986;4.564;2023-02-13T09:45:21;103737.44;;;14.34;64.28
44349;BME280;30068;50.986;4.564;2023-02-13T09:47:46;103736.19;;;14.23;64.82
44349;BME280;30068;50.986;4.564;2023-02-13T09:50:45;103740.22;;;14.32;64.74
44349;BME280;30068;50.986;4.564;2023-02-13T09:53:03;103740.38;;;14.29;64.91
44349;BME280;30068;50.986;4.564;2023-02-13T09:55:41;103736.88;;;14.27;64.82
44349;BME280;30068;50.986;4.564;2023-02-13T10:00:48;103733.97;;;14.32;64.80
44349;BME280;30068;50.986;4.564;2023-02-13T10:03:20;103733.81;;;14.35;64.76
44349;BME280;30068;50.986;4.564;2023-02-13T10:11:18;103734.38;;;14.41;64.51
44349;BME280;30068;50.986;4.564;2023-02-13T10:14:00;103732.78;;;14.37;64.70
44349;BME280;30068;50.986;4.564;2023-02-13T10:16:35;103725.81;;;14.33;64.99
44349;BME280;30068;50.986;4.564;2023-02-13T10:21:59;103729.63;;;14.29;65.04
44349;BME280;30068;50.986;4.564;2023-02-13T10:24:38;103726.78;;;14.32;65.04
44349;BME280;30068;50.986;4.564;2023-02-13T10:30:02;103722.38;;;14.31;65.17
44349;BME280;30068;50.986;4.564;2023-02-13T10:33:15;103723.44;;;14.27;65.40
44349;BME280;30068;50.986;4.564;2023-02-13T10:35:16;103721.16;;;14.37;65.08
44349;BME280;30068;50.986;4.564;2023-02-13T10:37:42;103724.97;;;14.33;65.38
44349;BME280;30068;50.986;4.564;2023-02-13T10:40:09;103723.13;;;14.33;65.26
44349;BME280;30068;50.986;4.564;2023-02-13T10:42:43;103717.56;;;14.38;65.17
44349;BME280;30068;50.986;4.564;2023-02-13T10:53:03;103711.28;;;14.37;65.05
44349;BME280;30068;50.986;4.564;2023-02-13T10:58:11;103714.94;;;14.36;65.25
44349;BME280;30068;50.986;4.564;2023-02-13T11:03:04;103706.00;;;14.36;65.29
44349;BME280;30068;50.986;4.564;2023-02-13T11:05:36;103694.31;;;14.37;65.16
44349;BME280;30068;50.986;4.564;2023-02-13T11:08:02;103698.50;;;14.42;65.03
44349;BME280;30068;50.986;4.564;2023-02-13T11:10:28;103699.25;;;14.46;64.99
44349;BME280;30068;50.986;4.564;2023-02-13T11:12:54;103699.38;;;14.43;65.05
44349;BME280;30068;50.986;4.564;2023-02-13T11:17:44;103686.41;;;14.34;65.01
44349;BME280;30068;50.986;4.564;2023-02-13T11:22:51;103679.63;;;14.44;64.78
44349;BME280;30068;50.986;4.564;2023-02-13T11:25:17;103682.47;;;14.41;65.14
44349;BME280;30068;50.986;4.564;2023-02-13T11:27:44;103682.41;;;14.42;64.76
44349;BME280;30068;50.986;4.564;2023-02-13T11:32:55;103679.88;;;14.39;65.11
44349;BME280;30068;50.986;4.564;2023-02-13T11:35:26;103678.75;;;14.43;64.87
44349;BME280;30068;50.986;4.564;2023-02-13T11:38:05;103665.72;;;14.69;64.52
44349;BME280;30068;50.986;4.564;2023-02-13T11:40:35;103660.13;;;14.73;58.03
44349;BME280;30068;50.986;4.564;2023-02-13T11:43:00;103659.47;;;14.52;62.77
44349;BME280;30068;50.986;4.564;2023-02-13T11:45:26;103659.69;;;14.48;62.79
44349;BME280;30068;50.986;4.564;2023-02-13T11:47:52;103652.09;;;14.56;62.70
44349;BME280;30068;50.986;4.564;2023-02-13T11:50:30;103653.44;;;14.65;62.79
44349;BME280;30068;50.986;4.564;2023-02-13T11:52:57;103647.56;;;14.74;62.47
44349;BME280;30068;50.986;4.564;2023-02-13T11:55:27;103644.00;;;14.89;62.26
44349;BME280;30068;50.986;4.564;2023-02-13T11:58:00;103642.78;;;14.94;61.74
44349;BME280;30068;50.986;4.564;2023-02-13T12:00:30;103637.41;;;14.94;59.43
44349;BME280;30068;50.986;4.564;2023-02-13T12:02:57;103645.22;;;15.46;59.64
44349;BME280;30068;50.986;4.564;2023-02-13T12:05:24;103632.31;;;15.83;59.86
44349;BME280;30068;50.986;4.564;2023-02-13T12:07:49;103632.06;;;16.01;59.80
44349;BME280;30068;50.986;4.564;2023-02-13T12:15:38;103627.97;;;16.38;59.04
44349;BME280;30068;50.986;4.564;2023-02-13T12:28:41;103619.09;;;16.79;58.44
44349;BME280;30068;50.986;4.564;2023-02-13T12:41:43;103610.69;;;17.12;57.81
44349;BME280;30068;50.986;4.564;2023-02-13T12:44:06;103611.78;;;17.22;57.36
44349;BME280;30068;50.986;4.564;2023-02-13T12:46:43;103605.75;;;17.18;57.81
44349;BME280;30068;50.986;4.564;2023-02-13T12:57:14;103594.72;;;17.21;58.03
44349;BME280;30068;50.986;4.564;2023-02-13T13:10:23;103577.97;;;17.43;57.77
44349;BME280;30068;50.986;4.564;2023-02-13T13:12:58;103573.63;;;17.41;57.84
44349;BME280;30068;50.986;4.564;2023-02-13T13:15:46;103567.50;;;17.38;58.08
44349;BME280;30068;50.986;4.564;2023-02-13T13:18:16;103568.69;;;17.47;57.92
44349;BME280;30068;50.986;4.564;2023-02-13T13:23:31;103565.66;;;17.39;58.36
44349;BME280;30068;50.986;4.564;2023-02-13T13:26:08;103562.84;;;17.41;58.27
44349;BME280;30068;50.986;4.564;2023-02-13T13:28:37;103557.56;;;17.39;58.46
44349;BME280;30068;50.986;4.564;2023-02-13T13:31:04;103559.19;;;17.54;58.01
44349;BME280;30068;50.986;4.564;2023-02-13T13:33:30;103548.47;;;17.67;57.47
44349;BME280;30068;50.986;4.564;2023-02-13T13:41:16;103546.69;;;17.53;58.15
44349;BME280;30068;50.986;4.564;2023-02-13T13:51:35;103542.94;;;17.68;57.95
44349;BME280;30068;50.986;4.564;2023-02-13T13:59:16;103551.28;;;17.65;58.15
44349;BME280;30068;50.986;4.564;2023-02-13T14:01:41;103551.97;;;16.88;52.43
44349;BME280;30068;50.986;4.564;2023-02-13T14:11:50;103545.34;;;16.80;57.60
44349;BME280;30068;50.986;4.564;2023-02-13T14:14:49;103555.25;;;16.79;58.12
44349;BME280;30068;50.986;4.564;2023-02-13T14:17:08;103549.22;;;16.76;58.44
44349;BME280;30068;50.986;4.564;2023-02-13T14:19:38;103549.53;;;16.71;58.68
44349;BME280;30068;50.986;4.564;2023-02-13T14:24:51;103536.38;;;16.79;58.69
44349;BME280;30068;50.986;4.564;2023-02-13T14:27:24;103537.38;;;16.78;58.90
44349;BME280;30068;50.986;4.564;2023-02-13T14:29:50;103541.53;;;16.70;59.46
44349;BME280;30068;50.986;4.564;2023-02-13T14:32:29;103536.03;;;16.71;59.48
44349;BME280;30068;50.986;4.564;2023-02-13T14:34:56;103525.44;;;16.68;59.70
44349;BME280;30068;50.986;4.564;2023-02-13T14:37:25;103529.66;;;16.72;59.85
44349;BME280;30068;50.986;4.564;2023-02-13T14:40:11;103523.22;;;16.75;59.77
44349;BME280;30068;50.986;4.564;2023-02-13T14:42:36;103510.59;;;16.75;59.72
44349;BME280;30068;50.986;4.564;2023-02-13T14:45:03;103511.97;;;16.68;60.09
44349;BME280;30068;50.986;4.564;2023-02-13T14:47:30;103514.06;;;16.77;60.06
44349;BME280;30068;50.986;4.564;2023-02-13T14:49:57;103510.78;;;16.72;60.01
44349;BME280;30068;50.986;4.564;2023-02-13T14:52:36;103504.66;;;16.70;60.33
44349;BME280;30068;50.986;4.564;2023-02-13T14:57:28;103493.00;;;16.70;60.56
44349;BME280;30068;50.986;4.564;2023-02-13T14:59:55;103493.78;;;16.72;60.62
44349;BME280;30068;50.986;4.564;2023-02-13T15:05:03;103495.00;;;16.66;60.71
44349;BME280;30068;50.986;4.564;2023-02-13T15:07:32;103498.88;;;16.62;60.88
44349;BME280;30068;50.986;4.564;2023-02-13T15:09:59;103491.56;;;16.64;60.96
44349;BME280;30068;50.986;4.564;2023-02-13T15:12:26;103488.47;;;16.70;60.35
44349;BME280;30068;50.986;4.564;2023-02-13T15:14:52;103492.69;;;16.74;60.52
44349;BME280;30068;50.986;4.564;2023-02-13T15:17:19;103479.41;;;16.71;60.77
44349;BME280;30068;50.986;4.564;2023-02-13T15:19:46;103484.91;;;16.70;60.66
44349;BME280;30068;50.986;4.564;2023-02-13T15:22:54;103477.78;;;16.69;60.67
44349;BME280;30068;50.986;4.564;2023-02-13T15:25:00;103480.47;;;16.69;60.92
44349;BME280;30068;50.986;4.564;2023-02-13T15:27:30;103483.09;;;16.70;60.81
44349;BME280;30068;50.986;4.564;2023-02-13T15:30:01;103482.22;;;16.70;61.08
44349;BME280;30068;50.986;4.564;2023-02-13T15:32:34;103478.66;;;16.69;61.17
44349;BME280;30068;50.986;4.564;2023-02-13T15:37:58;103485.78;;;16.70;61.20
44349;BME280;30068;50.986;4.564;2023-02-13T15:40:24;103478.66;;;16.69;61.46